BGR weather

Bangor International Airport
Bangor, Maine, United States

Public forecast

Using degrees Fahrenheit for public forecast. Weather courtesy of forecast.io.

METAR (pilot weather report)

Retrieved 2017/12/15 15:53 UTC (39 minutes ago):

KBGR 151553Z 25007KT 10SM FEW200 M09/M16 A3002 RMK AO2 SLP170 T10941156

TAF (pilot weather forecast)

Retrieved 2017/12/15 12:22 UTC (4 hours ago):

TAF KBGR 151120Z 1512/1612 24008KT P6SM SKC FM152200 18004KT P6SM BKN150 FM160400 VRB03KT P6SM BKN040 OVC080